Time;durP1;ratioP1;P1;durP2;ratioP2;P2;SDS_P1;SDS_P2;PMS_P1;PMS_P2;Temp;Humidity;BMP_temperature;BMP_pressure;BME280_temperature;BME280_humidity;BME280_pressure;Samples;Min_cycle;Max_cycle;Signal;HPM_P1;HPM_P2
2023/05/31 00:01:02;;;;;;;;;17.50;17.50;;;;;18.50;54.21;101677.78;6245069;22;45341;-67
2023/05/31 00:03:27;;;;;;;;;19.25;18.50;;;;;18.52;53.99;101695.66;6244060;22;45336;-67
2023/05/31 00:05:53;;;;;;;;;19.00;15.75;;;;;18.49;54.53;101705.75;6245841;22;45388;-67
2023/05/31 00:08:18;;;;;;;;;16.25;15.00;;;;;18.44;54.47;101692.50;6244156;22;45464;-67
2023/05/31 00:10:44;;;;;;;;;17.00;16.25;;;;;18.40;54.75;101698.13;6246104;22;46168;-67
2023/05/31 00:13:09;;;;;;;;;17.00;17.00;;;;;18.26;54.90;101678.06;6244666;22;45297;-67
2023/05/31 00:15:35;;;;;;;;;20.50;19.50;;;;;18.34;54.72;101702.00;6245725;22;45291;-67
2023/05/31 00:18:00;;;;;;;;;19.50;17.75;;;;;18.23;54.86;101683.63;6245206;22;45404;-67
2023/05/31 00:20:25;;;;;;;;;15.00;14.50;;;;;18.15;55.47;101677.72;6245666;22;45896;-67
2023/05/31 00:22:51;;;;;;;;;20.00;18.75;;;;;18.21;55.49;101690.03;6245058;22;52428;-67
2023/05/31 00:25:16;;;;;;;;;17.25;16.50;;;;;18.15;55.37;101696.63;6245905;22;45248;-67
2023/05/31 00:27:41;;;;;;;;;19.50;18.00;;;;;18.00;55.31;101690.16;6245653;22;45242;-67
2023/05/31 00:30:07;;;;;;;;;16.25;14.75;;;;;18.00;55.91;101689.28;6245906;22;45296;-67
2023/05/31 00:32:32;;;;;;;;;19.25;17.25;;;;;17.98;56.06;101689.38;6245663;22;45315;-67
2023/05/31 00:34:58;;;;;;;;;18.25;18.25;;;;;17.93;56.12;101694.13;6246042;22;45267;-67
2023/05/31 00:37:23;;;;;;;;;16.75;14.75;;;;;17.88;55.93;101688.06;6245650;22;45235;-67
2023/05/31 00:39:48;;;;;;;;;19.75;19.75;;;;;17.88;56.25;101694.31;6243641;22;47463;-67
2023/05/31 00:42:14;;;;;;;;;20.00;19.50;;;;;17.79;56.48;101678.50;6246045;22;45558;-67
2023/05/31 00:44:39;;;;;;;;;16.00;16.00;;;;;17.80;56.85;101687.50;6246107;22;45333;-67
2023/05/31 00:47:05;;;;;;;;;21.50;20.50;;;;;17.80;56.15;101690.22;6245072;22;45517;-67
2023/05/31 00:49:31;;;;;;;;;17.25;17.25;;;;;17.76;56.44;101689.50;6245658;22;46459;-67
2023/05/31 00:51:56;;;;;;;;;20.00;20.00;;;;;17.77;56.77;101688.53;6245660;22;45574;-67
2023/05/31 00:54:22;;;;;;;;;20.50;17.00;;;;;17.67;56.72;101668.31;6243064;22;45320;-67
2023/05/31 00:56:48;;;;;;;;;20.75;17.75;;;;;17.67;56.61;101673.72;6242993;22;45880;-67
2023/05/31 00:59:15;;;;;;;;;20.25;19.25;;;;;17.53;56.69;101667.13;6245347;22;45316;-67
2023/05/31 01:01:40;;;;;;;;;22.25;16.25;;;;;17.58;57.40;101675.91;6244886;22;45710;-67
2023/05/31 01:04:07;;;;;;;;;17.75;17.25;;;;;17.50;57.29;101663.72;6245436;22;45275;-67
2023/05/31 01:06:34;;;;;;;;;19.50;16.50;;;;;17.52;57.63;101665.38;6245454;22;45247;-67
2023/05/31 01:09:05;;;;;;;;;20.25;20.00;;;;;17.57;57.16;101667.88;6245344;22;45449;-67
2023/05/31 01:11:50;;;;;;;;;16.25;15.50;;;;;17.54;57.35;101670.69;6245500;22;45657;-67
2023/05/31 01:14:38;;;;;;;;;20.25;18.00;;;;;17.44;57.75;101669.38;6244816;22;45277;-67
2023/05/31 01:17:30;;;;;;;;;19.50;15.50;;;;;17.31;57.89;101661.00;6246714;22;45246;-67
2023/05/31 01:20:00;;;;;;;;;17.25;16.25;;;;;17.31;58.42;101661.88;6244759;22;47919;-67
2023/05/31 01:22:44;;;;;;;;;14.75;14.25;;;;;17.32;58.34;101674.41;6246339;22;45251;-67
2023/05/31 01:25:30;;;;;;;;;19.00;18.25;;;;;17.35;58.21;101671.56;6246781;22;45736;-67
2023/05/31 01:27:58;;;;;;;;;20.25;19.75;;;;;17.27;58.25;101657.53;6244397;22;45528;-67
2023/05/31 01:30:24;;;;;;;;;20.00;18.25;;;;;17.26;58.50;101653.09;6246538;22;45457;-67
2023/05/31 01:32:51;;;;;;;;;22.50;19.50;;;;;17.29;57.97;101665.56;6244533;22;47797;-67
2023/05/31 01:35:17;;;;;;;;;16.00;14.00;;;;;17.19;58.46;101647.13;6245373;22;45444;-67
2023/05/31 01:37:43;;;;;;;;;23.00;21.00;;;;;17.27;58.16;101659.38;6246713;22;45252;-67
2023/05/31 01:40:11;;;;;;;;;18.75;17.75;;;;;17.14;58.64;101641.06;6246968;22;46330;-67
2023/05/31 01:42:37;;;;;;;;;19.75;17.50;;;;;17.15;59.06;101644.63;6246575;22;45563;-67
2023/05/31 01:45:04;;;;;;;;;19.25;19.25;;;;;17.15;58.87;101640.09;6247060;22;45235;-67
2023/05/31 01:47:30;;;;;;;;;20.00;19.75;;;;;17.10;58.69;101636.72;6246573;22;45440;-67
2023/05/31 01:49:57;;;;;;;;;18.00;18.00;;;;;17.18;58.64;101656.16;6246366;22;46064;-67
2023/05/31 01:52:23;;;;;;;;;22.00;20.00;;;;;17.18;58.78;101647.19;6246735;22;45251;-67
2023/05/31 01:54:48;;;;;;;;;19.25;16.75;;;;;17.12;58.96;101636.66;6246717;22;45311;-67
2023/05/31 01:57:15;;;;;;;;;17.00;16.00;;;;;17.16;58.68;101644.56;6245363;22;45580;-67
2023/05/31 01:59:42;;;;;;;;;29.00;23.25;;;;;17.15;58.34;101652.72;6246635;22;46066;-67
2023/05/31 02:02:08;;;;;;;;;20.50;17.75;;;;;17.08;59.35;101652.13;6244819;22;45446;-67
2023/05/31 02:04:33;;;;;;;;;18.00;17.00;;;;;17.00;59.30;101641.66;6247103;22;45315;-67
2023/05/31 02:07:00;;;;;;;;;20.00;19.00;;;;;17.07;59.52;101654.88;6246631;22;45317;-67
2023/05/31 02:09:25;;;;;;;;;18.00;17.00;;;;;17.02;59.72;101645.19;6246978;22;46150;-67
2023/05/31 02:11:50;;;;;;;;;21.50;21.00;;;;;16.98;59.60;101642.69;6246738;22;45281;-67
2023/05/31 02:14:16;;;;;;;;;19.25;18.25;;;;;16.92;59.75;101633.03;6246829;22;45319;-67
2023/05/31 02:16:41;;;;;;;;;21.00;20.75;;;;;17.03;59.33;101649.63;6246188;22;45576;-67
2023/05/31 02:19:06;;;;;;;;;18.00;17.00;;;;;17.03;59.47;101646.94;6246613;22;46457;-67
2023/05/31 02:21:35;;;;;;;;;21.25;18.00;;;;;17.00;59.21;101630.00;6244955;22;45474;-67
2023/05/31 02:24:01;;;;;;;;;21.75;19.25;;;;;17.09;59.44;101635.00;6246487;22;45449;-67
2023/05/31 02:26:26;;;;;;;;;21.25;18.50;;;;;17.06;59.22;101627.03;6245928;22;45567;-67
2023/05/31 02:28:51;;;;;;;;;19.00;19.00;;;;;17.13;59.27;101636.59;6245980;22;46303;-67
2023/05/31 02:31:17;;;;;;;;;20.50;17.25;;;;;17.08;59.51;101625.16;6246645;22;45234;-67
2023/05/31 02:33:42;;;;;;;;;22.50;20.00;;;;;17.08;59.58;101630.53;6246669;22;45232;-67
2023/05/31 02:36:09;;;;;;;;;23.00;22.25;;;;;17.01;59.56;101618.28;6244716;22;45498;-67
2023/05/31 02:38:34;;;;;;;;;19.25;17.25;;;;;17.02;59.90;101638.91;6246362;22;45369;-67
2023/05/31 02:40:59;;;;;;;;;18.75;16.00;;;;;16.91;59.72;101628.63;6246614;22;45255;-67
2023/05/31 02:43:25;;;;;;;;;18.75;17.25;;;;;16.94;59.77;101633.88;6246225;22;45394;-67
2023/05/31 02:45:50;;;;;;;;;23.75;22.00;;;;;16.92;60.02;101632.19;6246645;22;45276;-67
2023/05/31 02:48:16;;;;;;;;;22.25;20.50;;;;;16.89;59.97;101635.00;6245508;22;46241;-67
2023/05/31 02:50:41;;;;;;;;;19.25;18.75;;;;;16.77;60.00;101620.22;6246641;22;45262;-67
2023/05/31 02:53:06;;;;;;;;;17.00;17.00;;;;;16.66;60.27;101596.44;6246021;22;48376;-67
2023/05/31 02:55:32;;;;;;;;;18.25;17.50;;;;;16.91;59.95;101643.94;6245875;22;45486;-67
2023/05/31 02:57:58;;;;;;;;;16.25;16.25;;;;;16.80;59.77;101620.94;6244483;22;47123;-67
2023/05/31 03:00:24;;;;;;;;;24.25;18.00;;;;;16.91;59.81;101619.66;6246533;22;45308;-67
2023/05/31 03:02:49;;;;;;;;;19.00;17.25;;;;;16.90;60.08;101624.16;6246644;22;45555;-67
2023/05/31 03:05:15;;;;;;;;;21.25;17.75;;;;;17.03;59.68;101638.84;6246725;22;45359;-67
2023/05/31 03:07:40;;;;;;;;;17.75;17.25;;;;;17.04;59.46;101632.50;6246108;22;45335;-67
2023/05/31 03:10:08;;;;;;;;;20.75;18.50;;;;;17.01;59.42;101629.06;6246118;22;45288;-67
2023/05/31 03:12:34;;;;;;;;;20.75;20.25;;;;;17.03;59.90;101622.66;6244872;22;45406;-67
2023/05/31 03:15:00;;;;;;;;;24.00;20.75;;;;;16.94;59.44;101600.63;6246162;22;45592;-67
2023/05/31 03:17:25;;;;;;;;;17.00;16.75;;;;;16.95;60.00;101602.38;6245392;22;46138;-67
2023/05/31 03:19:50;;;;;;;;;20.50;19.00;;;;;16.98;59.79;101613.03;6244394;22;45230;-67
2023/05/31 03:22:16;;;;;;;;;17.50;16.75;;;;;16.91;60.12;101620.53;6245572;22;45305;-67
2023/05/31 03:24:42;;;;;;;;;21.00;20.00;;;;;16.82;59.83;101612.78;6246200;22;45224;-67
2023/05/31 03:27:08;;;;;;;;;20.75;20.75;;;;;16.85;60.00;101624.34;6246151;22;46265;-67
2023/05/31 03:29:37;;;;;;;;;18.00;18.00;;;;;16.75;60.25;101619.41;6246489;22;45259;-67
2023/05/31 03:32:02;;;;;;;;;24.75;22.00;;;;;16.78;60.53;101624.69;6245629;22;45323;-67
2023/05/31 03:34:28;;;;;;;;;21.75;21.50;;;;;16.62;60.39;101622.66;6246040;22;45251;-67
2023/05/31 03:36:53;;;;;;;;;17.25;16.75;;;;;16.55;60.82;101604.97;6245490;22;46051;-67
2023/05/31 03:39:18;;;;;;;;;21.75;20.75;;;;;16.58;60.91;101612.06;6242919;22;47309;-67
2023/05/31 03:41:43;;;;;;;;;17.75;17.00;;;;;16.54;60.63;101608.66;6245767;22;45376;-67
2023/05/31 03:44:09;;;;;;;;;21.25;20.75;;;;;16.59;60.63;101620.09;6269012;22;54821;-67
2023/05/31 03:46:34;;;;;;;;;24.75;22.50;;;;;16.58;60.66;101626.41;6245010;22;47167;-67
2023/05/31 03:49:00;;;;;;;;;21.00;17.25;;;;;16.44;61.02;101627.03;6243753;22;58947;-67
2023/05/31 03:51:25;;;;;;;;;21.50;20.25;;;;;16.46;61.73;101635.03;6244797;22;45642;-67
2023/05/31 03:53:51;;;;;;;;;21.25;20.75;;;;;16.38;61.01;101627.28;6246080;22;45508;-67
2023/05/31 03:56:16;;;;;;;;;20.00;19.50;;;;;16.33;61.58;101628.44;6246290;22;45732;-67
2023/05/31 03:58:41;;;;;;;;;23.00;20.50;;;;;16.24;61.49;101627.00;6269479;22;45208;-67
2023/05/31 04:01:06;;;;;;;;;22.75;21.00;;;;;16.10;61.86;101620.38;6243509;22;45271;-67
2023/05/31 04:03:32;;;;;;;;;18.25;18.25;;;;;16.17;61.95;101629.06;6245820;22;57493;-67
2023/05/31 04:05:57;;;;;;;;;28.75;26.00;;;;;16.15;61.93;101632.75;6245959;22;45406;-67
2023/05/31 04:08:23;;;;;;;;;22.75;21.25;;;;;16.22;62.08;101643.22;6242957;22;45428;-67
2023/05/31 04:10:48;;;;;;;;;23.75;21.75;;;;;16.16;62.03;101635.38;6245796;22;45295;-66
2023/05/31 04:13:14;;;;;;;;;22.50;20.50;;;;;16.16;62.12;101631.84;6246385;22;45242;-67
2023/05/31 04:15:39;;;;;;;;;20.75;20.00;;;;;16.18;62.16;101633.50;6245623;22;46665;-67
2023/05/31 04:18:05;;;;;;;;;20.75;20.75;;;;;16.24;62.18;101646.72;6245006;22;45397;-67
2023/05/31 04:20:30;;;;;;;;;20.25;18.00;;;;;16.22;61.99;101642.34;6246215;22;45318;-67
2023/05/31 04:22:56;;;;;;;;;25.00;22.00;;;;;16.24;62.48;101653.94;6269412;22;45436;-67
2023/05/31 04:25:21;;;;;;;;;25.50;24.50;;;;;16.12;62.16;101644.53;6245698;22;45330;-67
2023/05/31 04:27:49;;;;;;;;;25.25;25.00;;;;;16.17;62.21;101649.72;6243193;22;45332;-67
2023/05/31 04:30:14;;;;;;;;;20.75;17.50;;;;;16.11;62.49;101650.88;6245960;22;45525;-67
2023/05/31 04:32:40;;;;;;;;;27.00;20.25;;;;;16.10;62.69;101650.00;6246023;22;45256;-67
2023/05/31 04:35:08;;;;;;;;;22.75;22.75;;;;;16.04;62.28;101641.28;6243455;22;46217;-67
2023/05/31 04:37:34;;;;;;;;;24.75;21.75;;;;;16.01;62.53;101636.91;6244920;22;45472;-67
2023/05/31 04:40:00;;;;;;;;;21.00;20.00;;;;;15.99;62.54;101648.66;6245010;22;45455;-67
2023/05/31 04:42:28;;;;;;;;;26.75;24.00;;;;;16.09;62.58;101652.75;6243124;22;45630;-67
2023/05/31 04:44:57;;;;;;;;;19.25;19.25;;;;;16.01;62.68;101644.97;6245621;22;46423;-67
2023/05/31 04:47:24;;;;;;;;;21.00;19.00;;;;;15.96;62.88;101633.53;6243862;22;45338;-67
2023/05/31 04:49:49;;;;;;;;;23.25;19.25;;;;;16.08;62.81;101654.56;6246550;22;45350;-67
2023/05/31 04:52:15;;;;;;;;;23.00;21.75;;;;;15.99;62.67;101643.28;6246938;22;45236;-67
2023/05/31 04:54:40;;;;;;;;;28.25;22.50;;;;;16.03;62.79;101648.47;6245875;22;56071;-67
2023/05/31 04:57:06;;;;;;;;;18.50;18.50;;;;;15.92;62.60;101631.88;6244289;22;45630;-67
2023/05/31 04:59:32;;;;;;;;;20.50;20.50;;;;;16.01;63.42;101642.28;6244520;22;45382;-67
2023/05/31 05:01:57;;;;;;;;;23.25;20.25;;;;;16.07;62.94;101652.81;6246457;22;45296;-67
2023/05/31 05:04:22;;;;;;;;;18.50;18.50;;;;;16.00;62.60;101651.28;6246460;22;46226;-66
2023/05/31 05:06:48;;;;;;;;;21.75;19.25;;;;;15.97;62.98;101642.47;6246545;22;45360;-67
2023/05/31 05:09:13;;;;;;;;;27.00;24.00;;;;;16.02;62.98;101648.53;6246461;22;45268;-66
2023/05/31 05:11:39;;;;;;;;;27.00;25.25;;;;;15.96;62.79;101633.53;6246412;22;45392;-67
2023/05/31 05:14:04;;;;;;;;;25.50;22.25;;;;;16.01;63.04;101652.19;6243642;22;45744;-66
2023/05/31 05:16:30;;;;;;;;;22.75;22.00;;;;;15.86;63.16;101638.41;6245649;22;45274;-67
2023/05/31 05:18:56;;;;;;;;;20.00;19.25;;;;;15.92;63.42;101639.94;6246412;22;45280;-66
2023/05/31 05:21:21;;;;;;;;;23.25;22.00;;;;;15.98;63.05;101647.78;6247010;22;45378;-67
2023/05/31 05:23:46;;;;;;;;;19.75;17.75;;;;;15.86;63.16;101629.44;6246493;22;45262;-67
2023/05/31 05:26:12;;;;;;;;;28.75;27.25;;;;;16.00;63.47;101647.72;6245628;22;45220;-67
2023/05/31 05:28:38;;;;;;;;;26.75;24.75;;;;;15.96;63.46;101646.97;6244513;22;45314;-67
2023/05/31 05:31:03;;;;;;;;;24.00;21.50;;;;;15.91;63.28;101631.00;6245874;22;45271;-67
2023/05/31 05:33:29;;;;;;;;;19.25;19.25;;;;;15.99;63.48;101644.16;6245681;22;45580;-66
2023/05/31 05:35:55;;;;;;;;;22.00;20.50;;;;;16.05;63.26;101654.66;6244859;22;45659;-67
2023/05/31 05:38:21;;;;;;;;;22.50;21.00;;;;;15.98;63.33;101642.41;6245679;22;45444;-67
2023/05/31 05:40:46;;;;;;;;;20.00;18.50;;;;;15.99;63.27;101643.28;6244163;22;45366;-67
2023/05/31 05:43:12;;;;;;;;;21.00;19.75;;;;;16.02;62.87;101645.84;6245740;22;45841;-67
2023/05/31 05:45:37;;;;;;;;;24.00;22.25;;;;;15.89;63.17;101635.59;6246507;22;45325;-67
2023/05/31 05:48:04;;;;;;;;;21.75;19.50;;;;;16.02;63.44;101652.13;6246076;22;45314;-67
2023/05/31 05:50:29;;;;;;;;;31.00;24.25;;;;;16.04;63.06;101658.31;6246473;22;45236;-67
2023/05/31 05:52:55;;;;;;;;;22.00;19.50;;;;;15.98;63.41;101653.19;6245822;22;46295;-66
2023/05/31 05:55:20;;;;;;;;;23.50;22.00;;;;;15.93;63.03;101650.66;6246839;22;45263;-67
2023/05/31 05:57:46;;;;;;;;;22.50;21.50;;;;;15.84;63.54;101637.59;6245871;22;45307;-66
2023/05/31 06:00:12;;;;;;;;;23.50;21.25;;;;;15.89;63.75;101634.72;6243504;22;46024;-67
2023/05/31 06:02:38;;;;;;;;;20.50;19.50;;;;;16.01;63.71;101658.44;6244397;22;47523;-67
2023/05/31 06:05:04;;;;;;;;;22.25;21.00;;;;;15.95;63.73;101636.28;6244160;22;45701;-67
2023/05/31 06:07:30;;;;;;;;;20.75;19.00;;;;;16.04;64.09;101641.28;6246320;22;45448;-67
2023/05/31 06:09:56;;;;;;;;;21.50;19.00;;;;;16.03;63.84;101639.53;6246088;22;45269;-67
2023/05/31 06:12:21;;;;;;;;;26.75;20.00;;;;;15.99;63.70;101636.09;6246571;22;45531;-67
2023/05/31 06:14:48;;;;;;;;;19.25;19.25;;;;;16.10;63.84;101659.88;6244826;22;45370;-67
2023/05/31 06:17:13;;;;;;;;;18.25;17.25;;;;;16.04;63.52;101636.78;6243667;22;45320;-66
2023/05/31 06:19:39;;;;;;;;;21.75;19.00;;;;;16.20;63.54;101652.31;6244192;22;45310;-66
2023/05/31 06:22:04;;;;;;;;;17.25;17.25;;;;;16.18;63.49;101652.34;6244548;22;60605;-67
2023/05/31 06:24:30;;;;;;;;;22.50;19.75;;;;;16.19;63.50;101646.03;6245975;22;45721;-68
2023/05/31 06:26:55;;;;;;;;;21.50;20.75;;;;;16.17;63.45;101642.53;6246420;22;45373;-68
2023/05/31 06:29:21;;;;;;;;;22.25;19.75;;;;;16.30;63.04;101664.44;6246052;22;45271;-68
2023/05/31 06:31:46;;;;;;;;;18.50;17.50;;;;;16.20;63.23;101637.00;6245501;22;46493;-68
2023/05/31 06:34:11;;;;;;;;;17.75;15.75;;;;;16.31;62.73;101644.66;6243909;22;50215;-68
2023/05/31 06:36:37;;;;;;;;;20.00;16.50;;;;;16.31;62.83;101639.25;6246278;22;45288;-66
2023/05/31 06:39:02;;;;;;;;;19.00;19.00;;;;;16.40;63.10;101651.47;6244823;22;45630;-67
2023/05/31 06:41:29;;;;;;;;;18.50;17.25;;;;;16.42;63.00;101654.97;6244600;22;47336;-68
2023/05/31 06:43:54;;;;;;;;;17.00;14.75;;;;;16.40;63.17;101643.38;6245539;22;45428;-68
2023/05/31 06:46:20;;;;;;;;;21.75;16.25;;;;;16.42;62.87;101634.31;6244420;22;45314;-68
2023/05/31 06:48:45;;;;;;;;;21.00;17.25;;;;;16.58;62.96;101641.72;6245338;22;45299;-67
2023/05/31 06:51:10;;;;;;;;;14.25;14.00;;;;;16.59;62.85;101635.38;6268993;22;46812;-67
2023/05/31 06:53:36;;;;;;;;;24.75;19.50;;;;;16.61;62.39;101636.22;6245222;22;45610;-67
2023/05/31 06:56:02;;;;;;;;;17.25;16.50;;;;;16.71;62.01;101648.34;6217882;22;45786;-68
2023/05/31 06:58:33;;;;;;;;;15.50;15.50;;;;;16.71;62.51;101642.06;6238813;22;45533;-68
2023/05/31 07:00:58;;;;;;;;;18.00;16.50;;;;;16.77;62.27;101641.78;6243700;22;46071;-69
2023/05/31 07:03:24;;;;;;;;;20.00;16.50;;;;;16.84;62.48;101640.59;6244829;22;45468;-69
2023/05/31 07:05:50;;;;;;;;;16.50;15.50;;;;;16.85;62.06;101631.56;6246130;22;45431;-69
2023/05/31 07:08:15;;;;;;;;;18.50;18.00;;;;;16.81;61.92;101621.84;6244711;22;45386;-69
2023/05/31 07:10:41;;;;;;;;;19.75;18.25;;;;;16.88;61.61;101625.19;6242255;22;47262;-69
2023/05/31 07:13:07;;;;;;;;;18.50;16.75;;;;;16.90;61.46;101620.59;6241966;22;45371;-67
2023/05/31 07:15:33;;;;;;;;;19.25;17.25;;;;;16.99;61.30;101634.53;6245414;22;45330;-67
2023/05/31 07:17:58;;;;;;;;;16.50;14.75;;;;;16.90;61.55;101616.06;6243897;22;45508;-67
2023/05/31 07:20:23;;;;;;;;;19.00;18.00;;;;;17.07;61.43;101630.59;6245914;22;45339;-67
2023/05/31 07:22:50;;;;;;;;;21.50;19.75;;;;;17.12;61.82;101626.75;6245781;22;45382;-70
2023/05/31 07:25:16;;;;;;;;;21.25;19.00;;;;;17.23;61.73;101631.66;6243770;22;45355;-66
2023/05/31 07:27:41;;;;;;;;;17.00;14.25;;;;;17.25;61.17;101624.38;6244044;22;45467;-66
2023/05/31 07:30:07;;;;;;;;;18.00;17.50;;;;;17.25;60.81;101616.28;6244405;22;45973;-66
2023/05/31 07:32:33;;;;;;;;;17.25;16.50;;;;;17.39;61.09;101624.59;6242752;22;45304;-66
2023/05/31 07:34:58;;;;;;;;;18.50;17.00;;;;;17.42;60.81;101615.47;6246248;22;45172;-66
2023/05/31 07:37:23;;;;;;;;;19.00;17.00;;;;;17.28;60.78;101586.44;6244408;22;45244;-66
2023/05/31 07:39:49;;;;;;;;;17.25;15.75;;;;;17.52;60.80;101595.19;6244183;22;45366;-65
2023/05/31 07:42:14;;;;;;;;;16.00;15.00;;;;;17.67;60.97;101620.56;6245232;22;45260;-66
2023/05/31 07:44:39;;;;;;;;;19.75;18.75;;;;;17.75;60.42;101617.50;6244527;22;45784;-66
2023/05/31 07:47:05;;;;;;;;;16.00;14.75;;;;;17.77;59.92;101612.91;6243811;22;45643;-64
2023/05/31 07:49:30;;;;;;;;;16.50;14.75;;;;;17.89;60.03;101625.88;6240243;22;45873;-65
2023/05/31 07:51:56;;;;;;;;;16.50;15.50;;;;;17.96;59.77;101621.03;6241988;22;45370;-65
2023/05/31 07:54:21;;;;;;;;;13.25;13.00;;;;;18.00;59.96;101605.53;6245560;22;45492;-66
2023/05/31 07:56:47;;;;;;;;;16.25;14.50;;;;;17.94;59.78;101582.41;6242560;22;45410;-66
2023/05/31 07:59:12;;;;;;;;;16.25;16.25;;;;;18.23;59.17;101610.66;6242766;22;46317;-67
2023/05/31 08:01:39;;;;;;;;;13.00;13.00;;;;;18.33;59.71;101614.63;6242429;22;45377;-66
2023/05/31 08:04:09;;;;;;;;;14.50;11.50;;;;;18.38;58.35;101605.44;6243794;22;45689;-68
2023/05/31 08:06:36;;;;;;;;;13.75;12.50;;;;;18.48;57.70;101606.72;6245564;22;45263;-70
2023/05/31 08:09:02;;;;;;;;;15.25;14.25;;;;;18.57;57.34;101602.66;6240032;22;47571;-68
2023/05/31 08:11:27;;;;;;;;;13.25;9.50;;;;;18.62;57.90;101604.13;6243456;22;45418;-69
2023/05/31 08:13:53;;;;;;;;;11.00;11.00;;;;;18.72;57.39;101600.97;6245250;22;45315;-70
2023/05/31 08:16:18;;;;;;;;;10.25;9.25;;;;;18.86;57.19;101607.44;6242924;22;45315;-70
2023/05/31 08:18:45;;;;;;;;;11.50;11.50;;;;;18.79;57.12;101569.91;6242294;22;46964;-69
2023/05/31 08:21:10;;;;;;;;;13.50;12.25;;;;;19.04;56.76;101592.03;6244523;22;45497;-70
2023/05/31 08:23:36;;;;;;;;;13.75;10.75;;;;;19.12;56.48;101588.88;6245737;22;45428;-71
2023/05/31 08:26:01;;;;;;;;;10.00;9.75;;;;;19.27;56.45;101594.44;6245124;22;45477;-70
2023/05/31 08:28:27;;;;;;;;;12.00;8.50;;;;;19.34;55.57;101590.41;6244445;22;46222;-70
2023/05/31 08:30:52;;;;;;;;;9.00;8.25;;;;;19.35;55.71;101589.47;6242487;22;45468;-70
2023/05/31 08:33:17;;;;;;;;;11.00;9.25;;;;;19.41;55.45;101580.97;6245743;22;45567;-70
2023/05/31 08:35:43;;;;;;;;;11.00;11.00;;;;;19.35;55.15;101559.69;6245605;22;45168;-70
2023/05/31 08:38:08;;;;;;;;;12.50;12.50;;;;;19.55;55.18;101569.38;6244164;22;45276;-69
2023/05/31 08:40:33;;;;;;;;;16.00;12.50;;;;;19.58;55.06;101574.63;6245522;22;45317;-70
2023/05/31 08:43:15;;;;;;;;;10.50;8.75;;;;;19.67;54.92;101581.34;6245318;22;45251;-70
2023/05/31 08:45:42;;;;;;;;;12.50;10.50;;;;;19.64;54.60;101568.84;6244311;22;45437;-70
2023/05/31 08:48:28;;;;;;;;;13.50;12.00;;;;;19.79;54.13;101592.38;6244290;22;45803;-69
2023/05/31 08:50:53;;;;;;;;;10.75;8.50;;;;;19.81;53.97;101581.44;6242765;22;45471;-68
2023/05/31 08:53:23;;;;;;;;;11.00;10.75;;;;;19.88;54.11;101576.53;6244550;22;45424;-70
2023/05/31 08:55:49;;;;;;;;;12.50;11.25;;;;;19.91;54.04;101570.94;6244835;22;45256;-70
2023/05/31 08:58:15;;;;;;;;;8.25;8.00;;;;;19.93;54.20;101564.50;6243471;22;46044;-69
2023/05/31 09:00:41;;;;;;;;;8.00;7.25;;;;;20.03;54.09;101572.94;6244487;22;45446;-71
2023/05/31 09:03:07;;;;;;;;;13.00;11.25;;;;;20.11;53.22;101572.47;6244673;22;45642;-69
2023/05/31 09:05:32;;;;;;;;;10.75;10.50;;;;;20.10;53.13;101568.03;6244716;22;45431;-71
2023/05/31 09:07:59;;;;;;;;;7.75;7.75;;;;;20.15;53.58;101565.94;6244286;22;45927;-70
2023/05/31 09:10:25;;;;;;;;;7.00;6.50;;;;;20.16;53.54;101559.53;6243095;22;45471;-70
2023/05/31 09:12:50;;;;;;;;;11.75;8.50;;;;;20.22;53.14;101553.75;6245324;22;45325;-70
2023/05/31 09:15:16;;;;;;;;;11.50;9.00;;;;;20.38;52.95;101563.66;6242102;22;48254;-70
2023/05/31 09:17:45;;;;;;;;;9.25;9.00;;;;;20.44;52.86;101566.00;6241582;22;45632;-70
2023/05/31 09:20:11;;;;;;;;;6.50;6.50;;;;;20.53;52.33;101560.91;6243493;22;45311;-70
2023/05/31 09:22:37;;;;;;;;;8.75;8.75;;;;;20.59;52.80;101561.47;6243402;22;45272;-70
2023/05/31 09:25:02;;;;;;;;;8.00;8.00;;;;;20.62;52.32;101550.44;6243228;22;45450;-70
2023/05/31 09:27:35;;;;;;;;;12.00;12.00;;;;;20.69;52.77;101551.84;6240494;22;47916;-70
2023/05/31 09:30:11;;;;;;;;;9.50;8.50;;;;;20.78;52.71;101547.66;6242320;22;45581;-70
2023/05/31 09:32:37;;;;;;;;;9.50;9.50;;;;;20.86;52.76;101546.22;6243184;22;45286;-70
2023/05/31 09:35:14;;;;;;;;;10.00;9.00;;;;;20.90;51.90;101536.91;6243521;22;45508;-69
2023/05/31 09:37:45;;;;;;;;;7.75;7.50;;;;;20.91;52.18;101522.41;6242831;22;45816;-69
2023/05/31 09:40:14;;;;;;;;;9.00;8.00;;;;;20.94;52.02;101524.03;6242771;22;45277;-69
2023/05/31 09:42:47;;;;;;;;;9.00;9.00;;;;;20.94;51.64;101515.88;6244841;22;45369;-68
2023/05/31 09:45:13;;;;;;;;;9.00;9.00;;;;;21.11;51.60;101533.78;6240448;22;45415;-69
2023/05/31 09:47:38;;;;;;;;;13.50;10.25;;;;;21.00;50.92;101518.22;6243570;22;45657;-69
2023/05/31 09:50:04;;;;;;;;;7.50;7.50;;;;;21.20;50.99;101524.19;6243257;22;45348;-69
2023/05/31 09:52:37;;;;;;;;;11.50;9.00;;;;;21.21;51.00;101517.78;6246239;22;45312;-69
2023/05/31 09:55:07;;;;;;;;;7.25;6.25;;;;;21.30;51.21;101517.22;6244958;22;45310;-69
2023/05/31 09:57:43;;;;;;;;;4.50;3.50;;;;;21.35;50.73;101506.91;6243549;22;46512;-69
2023/05/31 10:00:14;;;;;;;;;9.75;9.00;;;;;21.46;50.21;101517.91;6241675;22;45684;-69
2023/05/31 10:02:42;;;;;;;;;10.25;8.50;;;;;21.38;50.40;101506.69;6243562;22;45354;-69
2023/05/31 10:05:09;;;;;;;;;9.00;7.50;;;;;21.49;49.95;101516.88;6245214;22;45704;-69
2023/05/31 10:07:36;;;;;;;;;7.25;6.75;;;;;21.56;49.56;101503.78;6243969;22;46179;-69
2023/05/31 10:10:01;;;;;;;;;10.00;9.00;;;;;21.62;49.27;101517.81;6244023;22;45447;-69
2023/05/31 10:12:29;;;;;;;;;9.75;9.00;;;;;21.59;49.04;101496.28;6246010;22;45435;-69
2023/05/31 10:15:01;;;;;;;;;8.75;8.25;;;;;21.63;48.92;101499.66;6245801;22;45294;-69
2023/05/31 10:17:29;;;;;;;;;9.50;8.00;;;;;21.80;49.27;101507.56;6268488;22;47166;-69
2023/05/31 10:20:04;;;;;;;;;6.50;6.00;;;;;21.82;49.53;101500.16;6244904;22;45306;-69
2023/05/31 10:22:32;;;;;;;;;8.50;7.00;;;;;21.94;48.43;101503.03;6244247;22;45330;-69
2023/05/31 10:25:05;;;;;;;;;8.50;8.50;;;;;21.94;48.99;101489.44;6245851;22;45441;-69
2023/05/31 10:27:39;;;;;;;;;8.50;6.00;;;;;22.01;48.59;101490.75;6244523;22;45680;-68
2023/05/31 10:30:06;;;;;;;;;9.00;9.00;;;;;22.08;48.33;101488.47;6244874;22;45518;-70
2023/05/31 10:32:34;;;;;;;;;8.50;7.00;;;;;22.12;47.54;101485.44;6246273;22;45318;-70
2023/05/31 10:35:01;;;;;;;;;7.25;6.25;;;;;22.18;47.15;101489.59;6243585;22;45548;-70
2023/05/31 10:37:28;;;;;;;;;11.75;8.00;;;;;22.21;46.74;101495.66;6242282;22;48042;-69
2023/05/31 10:40:18;;;;;;;;;7.25;7.25;;;;;22.17;46.44;101483.28;6242335;22;45578;-71
2023/05/31 10:42:52;;;;;;;;;9.50;7.25;;;;;22.27;45.91;101486.22;6246118;22;45419;-71
2023/05/31 10:45:26;;;;;;;;;8.00;7.00;;;;;22.31;46.52;101492.34;6245865;22;45386;-70
2023/05/31 10:48:06;;;;;;;;;6.00;6.00;;;;;22.37;45.44;101497.38;6246075;22;45525;-70
2023/05/31 10:50:31;;;;;;;;;5.50;5.50;;;;;22.46;45.96;101485.81;6244117;22;45494;-70
2023/05/31 10:53:11;;;;;;;;;10.25;9.25;;;;;22.52;45.99;101482.69;6244360;22;45325;-70
2023/05/31 10:55:47;;;;;;;;;8.25;7.25;;;;;22.61;45.72;101474.84;6244348;22;45628;-69
2023/05/31 10:58:37;;;;;;;;;8.75;7.00;;;;;22.65;46.09;101474.50;6245820;22;45354;-70
2023/05/31 11:01:13;;;;;;;;;7.25;7.25;;;;;22.78;45.53;101476.34;6227377;22;45672;-70
2023/05/31 11:03:52;;;;;;;;;6.25;6.25;;;;;22.80;45.41;101458.03;6245942;22;45286;-70
2023/05/31 11:06:34;;;;;;;;;7.75;7.75;;;;;22.81;45.44;101449.78;6245457;22;45437;-70
2023/05/31 11:09:10;;;;;;;;;8.50;8.50;;;;;22.94;45.53;101469.66;6246133;22;46410;-70
2023/05/31 11:11:35;;;;;;;;;8.00;6.50;;;;;22.98;45.38;101453.13;6246644;22;45393;-70